createdAt,value
2022-08-18T00:01:06.515Z,98069.94
2022-08-18T00:03:55.864Z,98083.09
2022-08-18T00:06:20.204Z,98086.00
2022-08-18T00:08:46.706Z,98076.38
2022-08-18T00:11:13.223Z,98083.31
2022-08-18T00:13:39.748Z,98086.84
2022-08-18T00:16:06.528Z,98078.81
2022-08-18T00:18:33.020Z,98072.97
2022-08-18T00:20:59.784Z,98074.56
2022-08-18T00:23:30.425Z,98070.56
2022-08-18T00:25:59.522Z,98067.63
2022-08-18T00:28:26.140Z,98071.59
2022-08-18T00:30:53.885Z,98068.19
2022-08-18T00:33:20.775Z,98066.88
2022-08-18T00:35:47.288Z,98068.97
2022-08-18T00:38:23.670Z,98070.91
2022-08-18T00:40:54.475Z,98070.34
2022-08-18T00:43:27.805Z,98074.09
2022-08-18T00:45:54.388Z,98072.25
2022-08-18T00:48:20.877Z,98069.81
2022-08-18T00:50:55.715Z,98069.81
2022-08-18T00:53:29.666Z,98066.13
2022-08-18T00:55:56.635Z,98070.13
2022-08-18T00:58:27.596Z,98069.81
2022-08-18T01:00:54.885Z,98063.69
2022-08-18T01:03:24.400Z,98062.09
2022-08-18T01:06:01.280Z,98067.16
2022-08-18T01:08:29.482Z,98080.25
2022-08-18T01:10:56.502Z,98080.25
2022-08-18T01:13:26.928Z,98088.00
2022-08-18T01:15:53.576Z,98089.88
2022-08-18T01:18:38.391Z,98083.72
2022-08-18T01:21:34.300Z,98085.38
2022-08-18T01:24:02.483Z,98070.97
2022-08-18T01:26:30.295Z,98074.44
2022-08-18T01:28:58.912Z,98072.25
2022-08-18T01:31:37.524Z,98062.66
2022-08-18T01:34:06.393Z,98066.66
2022-08-18T01:36:34.815Z,98067.22
2022-08-18T01:39:01.311Z,98077.34
2022-08-18T01:41:30.873Z,98071.47
2022-08-18T01:43:59.045Z,98073.09
2022-08-18T01:46:26.421Z,98074.44
2022-08-18T01:48:53.636Z,98071.47
2022-08-18T01:51:34.767Z,98072.06
2022-08-18T01:54:07.004Z,98071.25
2022-08-18T01:56:33.649Z,98066.19
2022-08-18T01:59:00.164Z,98061.13
2022-08-18T02:01:35.305Z,98072.09
2022-08-18T02:04:31.220Z,98074.78
2022-08-18T02:06:51.007Z,98079.03
2022-08-18T02:09:24.228Z,98082.00
2022-08-18T02:11:51.282Z,98077.47
2022-08-18T02:14:20.227Z,98081.19
2022-08-18T02:16:53.410Z,98085.75
2022-08-18T02:19:25.871Z,98088.69
2022-08-18T02:21:52.709Z,98101.53
2022-08-18T02:24:19.222Z,98098.84
2022-08-18T02:26:45.720Z,98079.34
2022-08-18T02:29:12.784Z,98081.19
2022-08-18T02:31:39.295Z,98074.50
2022-08-18T02:34:05.792Z,98076.38
2022-08-18T02:36:32.332Z,98079.56
2022-08-18T02:38:59.713Z,98079.56
2022-08-18T02:41:29.605Z,98069.97
2022-08-18T02:43:56.490Z,98075.31
2022-08-18T02:46:23.544Z,98071.03
2022-08-18T02:48:52.318Z,98063.28
2022-08-18T02:51:18.911Z,98063.28
2022-08-18T02:53:46.133Z,98072.63
2022-08-18T02:56:41.484Z,98071.31
2022-08-18T02:59:10.741Z,98074.81
2022-08-18T03:01:39.393Z,98083.63
2022-08-18T03:04:07.403Z,98083.88
2022-08-18T03:06:34.312Z,98088.16
2022-08-18T03:09:00.820Z,98086.56
2022-08-18T03:11:27.939Z,98084.16
2022-08-18T03:13:54.644Z,98078.31
2022-08-18T03:16:21.336Z,98075.41
2022-08-18T03:18:48.003Z,98080.16
2022-08-18T03:21:16.606Z,98086.06
2022-08-18T03:23:43.958Z,98071.66
2022-08-18T03:26:27.575Z,98077.00
2022-08-18T03:28:54.509Z,98079.16
2022-08-18T03:31:22.888Z,98083.19
2022-08-18T03:33:51.543Z,98080.50
2022-08-18T03:36:19.995Z,98080.81
2022-08-18T03:38:46.603Z,98078.94
2022-08-18T03:41:58.838Z,98081.88
2022-08-18T03:44:05.321Z,98068.53
2022-08-18T03:46:32.237Z,98080.84
2022-08-18T03:49:00.356Z,98080.06
2022-08-18T03:51:27.692Z,98081.66
2022-08-18T03:53:55.504Z,98081.41
2022-08-18T03:56:23.826Z,98075.56
2022-08-18T03:58:52.736Z,98079.03
2022-08-18T04:01:27.133Z,98075.56
2022-08-18T04:03:57.875Z,98091.59
2022-08-18T04:06:29.860Z,98098.78
2022-08-18T04:08:59.017Z,98095.31
2022-08-18T04:11:25.563Z,98098.00
2022-08-18T04:13:52.069Z,98094.53
2022-08-18T04:16:18.570Z,98103.06
2022-08-18T04:18:45.323Z,98100.94
2022-08-18T04:21:13.640Z,98099.88
2022-08-18T04:23:43.880Z,98102.03
2022-08-18T04:26:19.065Z,98093.22
2022-08-18T04:28:46.172Z,98100.16
2022-08-18T04:31:13.900Z,98095.16
2022-08-18T04:33:40.928Z,98103.13
2022-08-18T04:36:13.549Z,98106.84
2022-08-18T04:38:47.262Z,98095.94
2022-08-18T04:41:13.812Z,98106.09
2022-08-18T04:43:40.763Z,98106.88
2022-08-18T04:46:07.352Z,98114.91
2022-08-18T04:48:39.246Z,98112.50
2022-08-18T04:51:10.400Z,98107.97
2022-08-18T04:53:45.926Z,98110.34
2022-08-18T04:56:28.560Z,98109.84
2022-08-18T04:58:57.933Z,98102.13
2022-08-18T05:01:27.503Z,98107.97
2022-08-18T05:03:54.320Z,98113.03
2022-08-18T05:06:21.567Z,98115.19
2022-08-18T05:08:48.467Z,98107.16
2022-08-18T05:11:15.043Z,98110.94
2022-08-18T05:13:42.869Z,98104.50
2022-08-18T05:16:16.656Z,98109.84
2022-08-18T05:18:44.735Z,98119.75
2022-08-18T05:21:14.448Z,98119.19
2022-08-18T05:23:44.698Z,98120.81
2022-08-18T05:26:11.652Z,98116.53
2022-08-18T05:28:38.177Z,98117.84
2022-08-18T05:31:13.546Z,98120.03
2022-08-18T05:33:40.388Z,98123.50
2022-08-18T05:36:29.760Z,98126.16
2022-08-18T05:39:22.688Z,98128.84
2022-08-18T05:41:54.892Z,98128.53
2022-08-18T05:44:29.690Z,98132.31
2022-08-18T05:47:04.767Z,98133.59
2022-08-18T05:49:31.268Z,98132.31
2022-08-18T05:52:03.087Z,98123.75
2022-08-18T05:54:55.284Z,98134.19
2022-08-18T05:57:22.393Z,98132.56
2022-08-18T05:59:48.927Z,98134.44
2022-08-18T06:02:28.390Z,98139.78
2022-08-18T06:05:11.949Z,98136.59
2022-08-18T06:07:49.291Z,98132.84
2022-08-18T06:10:16.012Z,98129.38
2022-08-18T06:12:47.436Z,98130.72
2022-08-18T06:15:31.644Z,98130.97
2022-08-18T06:18:18.524Z,98132.56
2022-08-18T06:21:00.107Z,98141.91
2022-08-18T06:23:36.135Z,98136.56
2022-08-18T06:26:20.067Z,98145.66
2022-08-18T06:29:12.600Z,98148.03
2022-08-18T06:32:03.003Z,98148.84
2022-08-18T06:35:08.193Z,98159.78
2022-08-18T06:38:05.813Z,98158.44
2022-08-18T06:40:32.315Z,98162.06
2022-08-18T06:43:02.153Z,98176.63
2022-08-18T06:45:35.945Z,98168.97
2022-08-18T06:48:15.721Z,98172.06
2022-08-18T06:50:50.839Z,98176.81
2022-08-18T06:53:26.885Z,98172.81
2022-08-18T06:55:54.186Z,98186.19
2022-08-18T06:58:30.210Z,98194.06
2022-08-18T07:01:02.354Z,98186.28
2022-08-18T07:03:48.873Z,98187.03
2022-08-18T07:06:21.464Z,98189.16
2022-08-18T07:08:55.466Z,98186.50
2022-08-18T07:11:32.477Z,98192.88
2022-08-18T07:14:16.835Z,98191.81
2022-08-18T07:16:59.755Z,98202.47
2022-08-18T07:19:29.112Z,98202.47
2022-08-18T07:22:05.469Z,98201.78
2022-08-18T07:24:38.758Z,98203.66
2022-08-18T07:27:13.340Z,98209.75
2022-08-18T07:30:00.247Z,98205.75
2022-08-18T07:32:34.358Z,98216.53
2022-08-18T07:35:03.622Z,98213.88
2022-08-18T07:37:43.559Z,98205.84
2022-08-18T07:40:21.022Z,98217.59
2022-08-18T07:43:05.328Z,98206.91
2022-08-18T07:45:42.929Z,98197.63
2022-08-18T07:48:39.820Z,98203.75
2022-08-18T07:51:24.147Z,98205.63
2022-08-18T07:53:56.878Z,98193.88
2022-08-18T07:56:37.769Z,98205.31
2022-08-18T07:59:21.081Z,98206.94
2022-08-18T08:01:54.877Z,98208.25
2022-08-18T08:04:42.784Z,98201.88
2022-08-18T08:07:24.908Z,98197.56
2022-08-18T08:10:30.641Z,98195.13
2022-08-18T08:13:53.509Z,98199.22
2022-08-18T08:16:37.977Z,98192.53
2022-08-18T08:19:58.828Z,98190.66
2022-08-18T08:22:27.545Z,98190.38
2022-08-18T08:25:01.698Z,98190.81
2022-08-18T08:27:34.337Z,98194.69
2022-08-18T08:30:12.496Z,98199.66
2022-08-18T08:33:02.668Z,98203.13
2022-08-18T08:35:48.562Z,98213.78
2022-08-18T08:38:45.026Z,98210.28
2022-08-18T08:41:14.382Z,98213.34
2022-08-18T08:43:43.995Z,98200.00
2022-08-18T08:46:13.304Z,98205.78
2022-08-18T08:48:43.201Z,98222.97
2022-08-18T08:51:09.560Z,98211.19
2022-08-18T08:53:39.908Z,98213.47
2022-08-18T08:56:09.644Z,98200.97
2022-08-18T08:58:50.716Z,98210.81
2022-08-18T09:01:29.388Z,98213.88
2022-08-18T09:04:23.284Z,98206.22
2022-08-18T09:07:47.313Z,98209.28
2022-08-18T09:10:22.328Z,98200.56
2022-08-18T09:13:10.043Z,98207.53
2022-08-18T09:15:54.443Z,98217.88
2022-08-18T09:18:34.085Z,98220.56
2022-08-18T09:21:15.997Z,98219.25
2022-08-18T09:23:47.347Z,98221.66
2022-08-18T09:26:26.011Z,98224.06
2022-08-18T09:29:00.349Z,98215.22
2022-08-18T09:31:27.595Z,98224.78
2022-08-18T09:34:31.737Z,98238.00
2022-08-18T09:37:28.507Z,98229.69
2022-08-18T09:40:19.473Z,98236.63
2022-08-18T09:43:20.170Z,98238.75
2022-08-18T09:45:47.013Z,98246.22
2022-08-18T09:48:20.774Z,98245.16
2022-08-18T09:51:41.294Z,98239.06
2022-08-18T09:54:13.365Z,98244.88
2022-08-18T09:56:54.067Z,98240.38
2022-08-18T10:02:28.412Z,98242.97
2022-08-18T10:05:17.072Z,98241.94
2022-08-18T10:07:47.562Z,98250.78
2022-08-18T10:10:59.782Z,98252.59
2022-08-18T10:13:29.701Z,98259.03
2022-08-18T10:16:38.247Z,98252.97
2022-08-18T10:19:33.855Z,98251.34
2022-08-18T10:22:07.664Z,98251.00
2022-08-18T10:24:53.805Z,98238.72
2022-08-18T10:27:46.400Z,98241.97
2022-08-18T10:36:03.141Z,98238.03
2022-08-18T10:41:30.767Z,98236.56
2022-08-18T10:43:58.016Z,98229.03
2022-08-18T10:46:31.859Z,98237.34
2022-08-18T10:52:20.944Z,98251.34
2022-08-18T10:55:10.338Z,98252.41
2022-08-18T10:58:02.180Z,98248.63
2022-08-18T11:00:45.260Z,98243.53
2022-08-18T11:03:50.481Z,98237.66
2022-08-18T11:06:21.942Z,98242.94
2022-08-18T11:08:54.825Z,98233.94
2022-08-18T11:11:52.737Z,98233.69
2022-08-18T11:14:58.397Z,98225.84
2022-08-18T11:17:33.705Z,98233.91
2022-08-18T11:20:00.955Z,98228.53
2022-08-18T11:22:34.237Z,98233.63
2022-08-18T11:25:03.271Z,98220.50
2022-08-18T11:27:33.978Z,98224.41
2022-08-18T11:30:01.658Z,98218.72
2022-08-18T11:32:42.460Z,98226.22
2022-08-18T11:35:24.102Z,98220.66
2022-08-18T11:38:01.145Z,98223.25
2022-08-18T11:41:08.764Z,98206.19
2022-08-18T11:43:41.310Z,98200.78
2022-08-18T11:46:24.082Z,98209.94
2022-08-18T11:48:56.375Z,98204.13
2022-08-18T11:51:32.080Z,98196.88
2022-08-18T11:54:00.461Z,98192.78
2022-08-18T11:56:31.145Z,98195.09
2022-08-18T11:59:08.594Z,98197.75
2022-08-18T12:01:42.398Z,98195.31
2022-08-18T12:04:14.616Z,98184.63
2022-08-18T12:06:50.962Z,98190.25
2022-08-18T12:12:24.634Z,98177.16
2022-08-18T12:18:10.372Z,98180.63
2022-08-18T12:20:45.118Z,98187.78
2022-08-18T12:23:17.801Z,98188.84
2022-08-18T12:25:44.330Z,98188.06
2022-08-18T12:28:11.273Z,98195.31
2022-08-18T12:30:37.830Z,98193.41
2022-08-18T12:33:12.181Z,98192.09
2022-08-18T12:35:42.020Z,98186.97
2022-08-18T12:38:12.833Z,98184.03
2022-08-18T12:40:41.371Z,98182.66
2022-08-18T12:43:08.084Z,98177.06
2022-08-18T12:45:34.655Z,98182.09
2022-08-18T12:48:04.650Z,98170.84
2022-08-18T12:50:36.279Z,98169.75
2022-08-18T12:53:05.893Z,98160.66
2022-08-18T12:55:35.297Z,98169.50
2022-08-18T12:58:05.245Z,98175.78
2022-08-18T13:00:32.540Z,98176.09
2022-08-18T13:02:59.290Z,98180.34
2022-08-18T13:05:26.375Z,98183.06
2022-08-18T13:07:58.019Z,98178.56
2022-08-18T13:10:44.847Z,98181.38
2022-08-18T13:13:11.062Z,98185.19
2022-08-18T13:15:37.562Z,98172.84
2022-08-18T13:18:04.320Z,98172.31
2022-08-18T13:20:30.828Z,98164.03
2022-08-18T13:22:57.335Z,98159.19
2022-08-18T13:25:32.911Z,98157.25
2022-08-18T13:28:06.106Z,98155.97
2022-08-18T13:30:32.813Z,98146.84
2022-08-18T13:33:05.166Z,98145.25
2022-08-18T13:35:44.388Z,98142.63
2022-08-18T13:38:20.715Z,98137.50
2022-08-18T13:40:53.696Z,98151.41
2022-08-18T13:43:25.978Z,98131.34
2022-08-18T13:45:55.939Z,98135.84
2022-08-18T13:48:24.079Z,98140.19
2022-08-18T13:50:52.260Z,98146.28
2022-08-18T13:53:19.856Z,98154.59
2022-08-18T13:55:46.588Z,98144.16
2022-08-18T13:58:20.989Z,98142.53
2022-08-18T14:00:51.575Z,98139.06
2022-08-18T14:03:20.501Z,98131.81
2022-08-18T14:06:06.996Z,98114.44
2022-08-18T14:08:33.928Z,98122.22
2022-08-18T14:11:01.660Z,98119.81
2022-08-18T14:13:28.611Z,98124.66
2022-08-18T14:15:56.347Z,98128.91
2022-08-18T14:18:28.902Z,98130.75
2022-08-18T14:21:15.781Z,98133.19
2022-08-18T14:24:00.761Z,98134.56
2022-08-18T14:26:46.519Z,98131.66
2022-08-18T14:29:17.465Z,98128.97
2022-08-18T14:32:04.402Z,98125.75
2022-08-18T14:34:31.382Z,98118.84
2022-08-18T14:36:58.568Z,98119.59
2022-08-18T14:39:25.497Z,98117.72
2022-08-18T14:41:55.762Z,98119.31
2022-08-18T14:44:24.260Z,98125.22
2022-08-18T14:46:52.506Z,98122.03
2022-08-18T14:49:28.205Z,98116.94
2022-08-18T14:51:56.076Z,98118.34
2022-08-18T14:54:23.734Z,98128.72
2022-08-18T14:56:54.957Z,98141.88
2022-08-18T14:59:23.173Z,98133.41
2022-08-18T15:01:49.799Z,98134.47
2022-08-18T15:04:18.801Z,98139.00
2022-08-18T15:06:46.176Z,98124.22
2022-08-18T15:09:24.144Z,98122.88
2022-08-18T15:11:55.762Z,98132.00
2022-08-18T15:14:32.636Z,98118.84
2022-08-18T15:17:00.093Z,98122.03
2022-08-18T15:19:58.265Z,98126.06
2022-08-18T15:22:31.984Z,98130.97
2022-08-18T15:25:17.318Z,98140.56
2022-08-18T15:27:44.840Z,98129.09
2022-08-18T15:30:19.609Z,98132.91
2022-08-18T15:32:46.925Z,98133.91
2022-08-18T15:35:16.457Z,98133.69
2022-08-18T15:37:44.714Z,98129.88
2022-08-18T15:40:31.226Z,98127.19
2022-08-18T15:43:06.931Z,98122.16
2022-08-18T15:45:43.258Z,98124.81
2022-08-18T15:48:19.209Z,98124.53
2022-08-18T15:50:50.959Z,98122.41
2022-08-18T15:53:22.741Z,98118.09
2022-08-18T15:55:50.120Z,98116.78
2022-08-18T15:58:22.074Z,98123.44
2022-08-18T16:00:50.627Z,98115.66
2022-08-18T16:03:17.566Z,98115.34
2022-08-18T16:05:52.808Z,98111.44
2022-08-18T16:08:20.619Z,98097.50
2022-08-18T16:10:47.142Z,98112.00
2022-08-18T16:13:14.656Z,98105.50
2022-08-18T16:15:43.498Z,98109.81
2022-08-18T16:18:10.632Z,98117.06
2022-08-18T16:20:37.375Z,98116.03
2022-08-18T16:23:05.481Z,98109.88
2022-08-18T16:25:32.007Z,98111.72
2022-08-18T16:27:59.278Z,98120.59
2022-08-18T16:30:27.217Z,98111.50
2022-08-18T16:32:53.871Z,98109.31
2022-08-18T16:35:20.879Z,98120.59
2022-08-18T16:37:47.669Z,98115.19
2022-08-18T16:40:14.773Z,98113.13
2022-08-18T16:42:41.673Z,98107.78
2022-08-18T16:45:08.840Z,98108.34
2022-08-18T16:47:41.715Z,98114.78
2022-08-18T16:50:13.808Z,98113.41
2022-08-18T16:52:40.545Z,98114.84
2022-08-18T16:55:08.023Z,98112.72
2022-08-18T16:57:53.437Z,98105.72
2022-08-18T17:00:41.333Z,98097.19
2022-08-18T17:03:26.642Z,98092.84
2022-08-18T17:06:03.781Z,98084.88
2022-08-18T17:08:33.459Z,98094.75
2022-08-18T17:11:01.679Z,98090.25
2022-08-18T17:13:28.272Z,98088.09
2022-08-18T17:15:54.778Z,98101.72
2022-08-18T17:18:21.372Z,98099.06
2022-08-18T17:20:47.905Z,98099.34
2022-08-18T17:23:14.425Z,98106.81
2022-08-18T17:25:41.077Z,98104.44
2022-08-18T17:28:10.011Z,98110.34
2022-08-18T17:30:38.342Z,98105.25
2022-08-18T17:33:09.172Z,98111.16
2022-08-18T17:35:44.773Z,98113.81
2022-08-18T17:38:26.865Z,98111.41
2022-08-18T17:40:54.986Z,98112.84
2022-08-18T17:43:23.306Z,98110.63
2022-08-18T17:45:58.189Z,98114.63
2022-08-18T17:48:28.881Z,98123.53
2022-08-18T17:51:24.638Z,98123.19
2022-08-18T17:53:51.217Z,98118.91
2022-08-18T17:56:22.628Z,98117.13
2022-08-18T17:59:45.671Z,98112.00
2022-08-18T18:02:28.712Z,98120.84
2022-08-18T18:04:56.866Z,98115.75
2022-08-18T18:07:24.113Z,98117.09
2022-08-18T18:10:01.540Z,98112.34
2022-08-18T18:12:29.685Z,98114.75
2022-08-18T18:14:58.011Z,98109.63
2022-08-18T18:17:33.267Z,98119.31
2022-08-18T18:20:36.503Z,98115.56
2022-08-18T18:23:20.390Z,98118.53
2022-08-18T18:25:46.933Z,98111.34
2022-08-18T18:28:27.443Z,98119.09
2022-08-18T18:30:58.777Z,98115.91
2022-08-18T18:33:29.631Z,98117.81
2022-08-18T18:35:57.748Z,98120.53
2022-08-18T18:38:31.109Z,98123.78
2022-08-18T18:41:03.158Z,98120.81
2022-08-18T18:43:38.239Z,98124.00
2022-08-18T18:46:18.377Z,98118.97
2022-08-18T18:48:52.434Z,98120.03
2022-08-18T18:51:35.902Z,98114.94
2022-08-18T18:54:39.502Z,98114.16
2022-08-18T18:57:30.116Z,98118.41
2022-08-18T19:00:18.178Z,98114.19
2022-08-18T19:03:10.521Z,98116.09
2022-08-18T19:05:51.879Z,98110.47
2022-08-18T19:08:35.832Z,98104.34
2022-08-18T19:11:10.072Z,98106.22
2022-08-18T19:13:43.189Z,98106.28
2022-08-18T19:16:24.165Z,98102.53
2022-08-18T19:19:37.946Z,98107.59
2022-08-18T19:22:04.855Z,98107.59
2022-08-18T19:24:38.484Z,98106.84
2022-08-18T19:27:05.084Z,98106.88
2022-08-18T19:29:36.298Z,98111.63
2022-08-18T19:32:07.271Z,98107.91
2022-08-18T19:34:42.448Z,98117.00
2022-08-18T19:37:49.451Z,98122.34
2022-08-18T19:40:21.585Z,98120.53
2022-08-18T19:43:04.225Z,98118.84
2022-08-18T19:45:40.560Z,98121.56
2022-08-18T19:48:17.992Z,98119.72
2022-08-18T19:51:04.929Z,98113.31
2022-08-18T19:53:35.698Z,98110.69
2022-08-18T19:56:08.119Z,98120.81
2022-08-18T19:59:04.670Z,98127.50
2022-08-18T20:02:02.847Z,98127.28
2022-08-18T20:04:43.457Z,98127.25
2022-08-18T20:07:38.808Z,98131.22
2022-08-18T20:10:36.626Z,98131.44
2022-08-18T20:13:36.704Z,98132.53
2022-08-18T20:16:09.581Z,98122.13
2022-08-18T20:18:49.366Z,98124.81
2022-08-18T20:21:15.717Z,98134.16
2022-08-18T20:24:00.516Z,98129.81
2022-08-18T20:26:38.726Z,98126.94
2022-08-18T20:29:11.796Z,98121.38
2022-08-18T20:31:45.707Z,98126.72
2022-08-18T20:34:14.762Z,98129.09
2022-08-18T20:36:41.938Z,98126.97
2022-08-18T20:39:34.472Z,98126.72
2022-08-18T20:42:05.457Z,98132.59
2022-08-18T20:44:50.339Z,98133.63
2022-08-18T20:47:25.720Z,98136.31
2022-08-18T20:50:13.418Z,98135.56
2022-08-18T20:53:01.294Z,98138.25
2022-08-18T20:55:35.100Z,98147.28
2022-08-18T20:58:08.242Z,98151.88
2022-08-18T21:00:36.613Z,98155.91
2022-08-18T21:03:08.394Z,98145.94
2022-08-18T21:05:36.596Z,98144.91
2022-08-18T21:08:31.751Z,98142.53
2022-08-18T21:11:00.687Z,98153.44
2022-08-18T21:13:28.171Z,98151.06
2022-08-18T21:15:56.006Z,98149.47
2022-08-18T21:18:24.044Z,98142.53
2022-08-18T21:20:51.610Z,98145.47
2022-08-18T21:23:33.773Z,98148.69
2022-08-18T21:26:05.369Z,98156.44
2022-08-18T21:28:34.836Z,98158.03
2022-08-18T21:31:41.524Z,98159.91
2022-08-18T21:33:56.510Z,98165.25
2022-08-18T21:36:31.620Z,98163.63
2022-08-18T21:39:05.951Z,98164.28
2022-08-18T21:41:33.560Z,98158.13
2022-08-18T21:44:06.295Z,98157.78
2022-08-18T21:46:32.946Z,98158.31
2022-08-18T21:49:01.725Z,98156.69
2022-08-18T21:51:31.169Z,98158.00
2022-08-18T21:53:58.572Z,98154.25
2022-08-18T21:56:28.148Z,98153.97
2022-08-18T21:59:11.860Z,98154.75
2022-08-18T22:01:52.315Z,98155.59
2022-08-18T22:04:26.579Z,98157.97
2022-08-18T22:06:55.507Z,98160.34
2022-08-18T22:09:43.130Z,98157.44
2022-08-18T22:12:51.132Z,98150.22
2022-08-18T22:15:20.748Z,98156.06
2022-08-18T22:18:07.221Z,98141.91
2022-08-18T22:20:49.953Z,98147.25
2022-08-18T22:23:34.875Z,98146.97
2022-08-18T22:26:16.290Z,98145.38
2022-08-18T22:28:54.633Z,98148.03
2022-08-18T22:31:23.159Z,98149.63
2022-08-18T22:33:50.654Z,98145.13
2022-08-18T22:36:19.555Z,98146.72
2022-08-18T22:38:46.649Z,98153.09
2022-08-18T22:41:13.752Z,98147.75
2022-08-18T22:43:40.247Z,98150.44
2022-08-18T22:46:06.755Z,98160.06
2022-08-18T22:48:33.248Z,98159.28
2022-08-18T22:50:59.757Z,98168.34
2022-08-18T22:53:26.242Z,98172.63
2022-08-18T22:55:53.281Z,98177.16
2022-08-18T22:58:25.397Z,98182.50
2022-08-18T23:01:01.054Z,98186.78
2022-08-18T23:03:32.134Z,98192.13
2022-08-18T23:06:03.280Z,98190.50
2022-08-18T23:08:32.300Z,98190.00
2022-08-18T23:11:16.551Z,98193.47
2022-08-18T23:13:43.037Z,98189.50
2022-08-18T23:16:30.479Z,98196.44
2022-08-18T23:18:56.407Z,98194.84
2022-08-18T23:21:34.828Z,98195.63
2022-08-18T23:24:04.213Z,98194.84
2022-08-18T23:26:30.711Z,98189.50
2022-08-18T23:28:57.371Z,98191.34
2022-08-18T23:31:23.849Z,98186.81
2022-08-18T23:33:50.427Z,98194.53
2022-08-18T23:36:17.814Z,98199.59
2022-08-18T23:38:44.367Z,98197.72
2022-08-18T23:41:11.580Z,98193.19
2022-08-18T23:43:38.086Z,98187.88
2022-08-18T23:46:04.717Z,98200.16
2022-08-18T23:48:31.206Z,98202.81
2022-08-18T23:51:03.082Z,98203.88
2022-08-18T23:53:30.773Z,98199.34
2022-08-18T23:55:57.471Z,98201.19
2022-08-18T23:58:24.297Z,98196.69
